Time;durP1;ratioP1;P1;durP2;ratioP2;P2;SDS_P1;SDS_P2;PMS_P1;PMS_P2;Temp;Humidity;BMP_temperature;BMP_pressure;BME280_temperature;BME280_humidity;BME280_pressure;Samples;Min_cycle;Max_cycle;Signal;HPM_P1;HPM_P2
2020/12/11 00:01:38;;;;;;;5.75;0.93;;;22.20;82.40;;;;;;5046048;28;20482;-77
2020/12/11 00:04:05;;;;;;;8.00;0.70;;;22.80;79.90;;;;;;5046619;28;20021;-75
2020/12/11 00:06:32;;;;;;;6.57;1.05;;;22.10;80.30;;;;;;5045074;28;20021;-75
2020/12/11 00:09:00;;;;;;;9.30;1.00;;;21.60;82.90;;;;;;5045720;28;20039;-74
2020/12/11 00:11:30;;;;;;;6.78;1.13;;;21.50;85.00;;;;;;5047958;28;20163;-77
2020/12/11 00:13:57;;;;;;;5.13;0.80;;;22.20;83.30;;;;;;5048619;28;20033;-74
2020/12/11 00:16:25;;;;;;;9.98;1.15;;;21.90;82.40;;;;;;5049123;28;20025;-75
2020/12/11 00:18:52;;;;;;;12.02;1.67;;;21.30;84.40;;;;;;5048070;28;20025;-78
2020/12/11 00:21:20;;;;;;;24.67;2.10;;;21.50;85.10;;;;;;5032251;28;20052;-77
2020/12/11 00:23:48;;;;;;;5.35;0.85;;;22.00;84.00;;;;;;5029555;28;20029;-78
2020/12/11 00:26:16;;;;;;;8.32;1.30;;;21.60;81.80;;;;;;5050756;28;20500;-78
2020/12/11 00:28:44;;;;;;;6.20;1.00;;;21.20;82.70;;;;;;5048655;28;20063;-78
2020/12/11 00:31:11;;;;;;;11.00;1.65;;;21.00;84.20;;;;;;5032698;28;20033;-79
2020/12/11 00:33:39;;;;;;;14.00;0.98;;;21.20;82.70;;;;;;5079349;22;20102;-78
2020/12/11 00:36:06;;;;;;;5.38;0.77;;;21.10;84.20;;;;;;5062490;28;20028;-74
2020/12/11 00:38:33;;;;;;;4.95;1.13;;;21.10;84.70;;;;;;5088830;22;20094;-77
2020/12/11 00:41:02;;;;;;;11.00;1.52;;;20.90;85.90;;;;;;5052516;28;20111;-77
2020/12/11 00:43:29;;;;;;;4.30;0.88;;;21.30;84.80;;;;;;5074838;28;20137;-77
2020/12/11 00:45:57;;;;;;;5.47;1.92;;;21.10;85.00;;;;;;5101168;22;20051;-75
2020/12/11 00:48:24;;;;;;;8.57;1.20;;;21.30;86.40;;;;;;5046351;28;20482;-76
2020/12/11 00:50:52;;;;;;;7.70;1.10;;;21.00;88.00;;;;;;5027668;28;20470;-73
2020/12/11 00:53:19;;;;;;;9.13;1.25;;;21.10;88.20;;;;;;5028282;28;20033;-76
2020/12/11 00:55:47;;;;;;;6.10;0.93;;;21.90;85.60;;;;;;5044971;22;20148;-74
2020/12/11 00:58:14;;;;;;;5.60;0.90;;;22.40;84.50;;;;;;5065952;28;20090;-75
2020/12/11 01:00:42;;;;;;;9.70;1.45;;;22.20;84.90;;;;;;5070179;28;20485;-75
2020/12/11 01:03:09;;;;;;;8.02;1.58;;;21.80;85.20;;;;;;5071694;28;20032;-75
2020/12/11 01:05:37;;;;;;;6.28;0.98;;;22.40;83.80;;;;;;5055128;28;20031;-75
2020/12/11 01:08:05;;;;;;;9.77;4.20;;;23.20;80.80;;;;;;5068291;28;20053;-75
2020/12/11 01:10:35;;;;;;;8.60;2.25;;;22.50;78.80;;;;;;5072096;22;20374;-78
2020/12/11 01:13:03;;;;;;;5.68;1.75;;;22.10;80.70;;;;;;5050249;28;20044;-75
2020/12/11 01:15:30;;;;;;;3.90;0.80;;;21.70;81.70;;;;;;5068902;28;20033;-75
2020/12/11 01:17:57;;;;;;;6.93;1.40;;;21.70;81.90;;;;;;5056021;28;20037;-75
2020/12/11 01:20:25;;;;;;;7.20;2.80;;;21.80;81.90;;;;;;5055886;28;20059;-77
2020/12/11 01:22:52;;;;;;;12.30;1.38;;;21.50;82.70;;;;;;5070397;28;20477;-75
2020/12/11 01:25:19;;;;;;;3.60;0.60;;;21.60;82.90;;;;;;5074499;28;20021;-76
2020/12/11 01:27:47;;;;;;;5.95;0.90;;;22.00;84.20;;;;;;5052202;28;20538;-75
2020/12/11 01:30:14;;;;;;;7.47;1.75;;;22.00;83.20;;;;;;5034155;28;20022;-77
2020/12/11 01:32:41;;;;;;;6.90;0.77;;;21.60;81.70;;;;;;5036766;28;20454;-74
2020/12/11 01:35:09;;;;;;;4.30;0.70;;;21.00;84.10;;;;;;5049241;28;20600;-76
2020/12/11 01:37:37;;;;;;;3.95;1.55;;;20.90;84.50;;;;;;5036377;28;20119;-76
2020/12/11 01:40:05;;;;;;;7.07;1.10;;;21.30;84.00;;;;;;5062426;28;20059;-76
2020/12/11 01:42:33;;;;;;;6.22;0.90;;;21.90;82.40;;;;;;5056167;28;20020;-76
2020/12/11 01:45:00;;;;;;;7.28;1.75;;;22.20;82.90;;;;;;5051943;23;20130;-77
2020/12/11 01:47:28;;;;;;;12.48;1.88;;;22.30;81.60;;;;;;5033668;28;20079;-76
2020/12/11 01:49:56;;;;;;;7.20;1.20;;;22.20;83.20;;;;;;5050644;28;20054;-78
2020/12/11 01:52:24;;;;;;;7.43;1.20;;;22.20;81.40;;;;;;5053864;28;20094;-78
2020/12/11 01:54:51;;;;;;;7.18;1.25;;;21.70;82.20;;;;;;5049542;28;20028;-80
2020/12/11 01:57:21;;;;;;;8.98;0.98;;;21.30;83.10;;;;;;5051726;28;20052;-79
2020/12/11 01:59:53;;;;;;;7.05;0.95;;;21.00;83.60;;;;;;5048661;28;20499;-81
2020/12/11 02:02:21;;;;;;;11.40;1.48;;;20.70;85.50;;;;;;5053345;28;20017;-80
2020/12/11 02:04:49;;;;;;;9.18;1.35;;;20.70;86.10;;;;;;5045116;28;20024;-80
2020/12/11 02:07:16;;;;;;;13.18;1.13;;;20.60;86.80;;;;;;5052912;28;20484;-80
2020/12/11 02:09:44;;;;;;;7.55;0.93;;;20.60;87.10;;;;;;5030832;28;20095;-79
2020/12/11 02:12:11;;;;;;;5.07;0.80;;;20.60;86.40;;;;;;5050080;28;20063;-80
2020/12/11 02:14:41;;;;;;;14.70;1.67;;;20.40;87.90;;;;;;5049863;28;20017;-79
2020/12/11 02:17:09;;;;;;;8.10;1.40;;;20.50;88.20;;;;;;5031397;28;20539;-81
2020/12/11 02:19:36;;;;;;;12.82;1.77;;;20.50;90.00;;;;;;5033436;28;20055;-80
2020/12/11 02:22:06;;;;;;;6.65;1.35;;;20.60;89.90;;;;;;5051229;28;20053;-78
2020/12/11 02:24:34;;;;;;;10.20;1.77;;;20.70;89.10;;;;;;5051002;28;20058;-83
2020/12/11 02:27:03;;;;;;;8.82;1.55;;;20.70;89.30;;;;;;5034849;28;20433;-82
2020/12/11 02:29:30;;;;;;;8.07;1.23;;;20.50;90.00;;;;;;5046989;28;20473;-80
2020/12/11 02:31:57;;;;;;;10.00;1.10;;;20.40;90.70;;;;;;5050982;28;20033;-81
2020/12/11 02:34:25;;;;;;;7.57;1.02;;;20.30;89.90;;;;;;5050700;28;20040;-83
2020/12/11 02:36:52;;;;;;;5.68;1.27;;;20.20;90.00;;;;;;5052921;28;20025;-80
2020/12/11 02:39:19;;;;;;;7.80;1.00;;;20.30;88.70;;;;;;5051233;28;20060;-81
2020/12/11 02:41:49;;;;;;;6.63;1.75;;;20.30;88.80;;;;;;5051916;28;20024;-80
2020/12/11 02:44:17;;;;;;;9.15;1.67;;;20.10;87.70;;;;;;5028196;28;20057;-82
2020/12/11 02:46:44;;;;;;;12.57;1.38;;;20.10;88.30;;;;;;5050678;23;20175;-82
2020/12/11 02:49:12;;;;;;;10.35;1.13;;;20.10;88.30;;;;;;5025087;23;20042;-86
2020/12/11 02:51:39;;;;;;;10.65;1.63;;;20.10;88.50;;;;;;5047534;28;20128;-87
2020/12/11 02:54:07;;;;;;;8.32;1.15;;;20.30;88.80;;;;;;5062862;22;20037;-87
2020/12/11 02:56:34;;;;;;;5.97;0.90;;;20.40;89.60;;;;;;5072282;28;20094;-87
2020/12/11 02:59:01;;;;;;;8.23;2.17;;;20.30;89.30;;;;;;5064379;28;20457;-87
2020/12/11 03:01:29;;;;;;;9.68;2.50;;;20.10;89.50;;;;;;5074212;22;20016;-86
2020/12/11 03:03:56;;;;;;;10.23;1.30;;;20.10;89.50;;;;;;5051968;28;20044;-87
2020/12/11 03:06:30;;;;;;;6.35;1.30;;;20.10;88.90;;;;;;5048351;28;20082;-86
2020/12/11 03:08:58;;;;;;;7.73;1.53;;;20.20;88.10;;;;;;5029622;28;20053;-86
2020/12/11 03:11:26;;;;;;;9.57;1.40;;;20.10;89.10;;;;;;5030603;28;20053;-87
2020/12/11 03:13:54;;;;;;;8.75;1.23;;;20.20;88.90;;;;;;5028292;28;20026;-87
2020/12/11 03:16:21;;;;;;;9.80;1.00;;;20.20;88.80;;;;;;5033357;28;20053;-85
2020/12/11 03:18:49;;;;;;;7.95;1.10;;;20.20;88.90;;;;;;5050589;22;20475;-86
2020/12/11 03:21:17;;;;;;;14.30;1.45;;;20.20;87.90;;;;;;5049736;28;20096;-85
2020/12/11 03:23:45;;;;;;;12.85;1.65;;;20.20;88.80;;;;;;5050567;28;20013;-84
2020/12/11 03:26:12;;;;;;;11.02;1.90;;;20.30;88.10;;;;;;5052563;28;20428;-85
2020/12/11 03:28:39;;;;;;;6.45;1.30;;;20.40;87.60;;;;;;5050467;28;20119;-86
2020/12/11 03:31:07;;;;;;;7.05;0.77;;;20.30;87.00;;;;;;5049501;28;20479;-85
2020/12/11 03:33:34;;;;;;;6.18;1.08;;;20.30;89.00;;;;;;5049274;28;20052;-86
2020/12/11 03:36:01;;;;;;;7.55;1.17;;;20.30;87.90;;;;;;5053170;28;20032;-86
2020/12/11 03:38:29;;;;;;;7.55;1.60;;;20.30;86.90;;;;;;5050629;28;20025;-85
2020/12/11 03:40:56;;;;;;;9.32;1.08;;;20.20;88.90;;;;;;5034251;28;20374;-83
2020/12/11 03:43:23;;;;;;;8.80;2.15;;;20.20;90.00;;;;;;5049913;28;20029;-86
2020/12/11 03:45:51;;;;;;;9.30;1.30;;;20.40;89.20;;;;;;5052346;28;20473;-84
2020/12/11 03:48:18;;;;;;;9.25;1.60;;;20.30;88.40;;;;;;5046466;28;20025;-85
2020/12/11 03:50:46;;;;;;;7.35;1.23;;;20.50;90.20;;;;;;5051568;28;20040;-87
2020/12/11 03:53:14;;;;;;;10.85;1.27;;;20.50;85.70;;;;;;5062570;22;20057;-85
2020/12/11 03:55:41;;;;;;;6.50;0.80;;;20.30;84.80;;;;;;5047513;28;20052;-85
2020/12/11 03:58:08;;;;;;;8.60;1.63;;;20.30;85.20;;;;;;5035194;28;20064;-86
2020/12/11 04:00:36;;;;;;;7.20;1.00;;;20.40;83.50;;;;;;5067409;28;20052;-85
2020/12/11 04:03:03;;;;;;;7.35;0.90;;;20.60;83.80;;;;;;5088740;28;20035;-85
2020/12/11 04:05:30;;;;;;;8.23;1.88;;;20.60;83.90;;;;;;5073846;28;20036;-86
2020/12/11 04:07:57;;;;;;;9.20;1.40;;;20.80;84.20;;;;;;5069807;28;20040;-80
2020/12/11 04:10:25;;;;;;;7.72;1.00;;;20.90;84.60;;;;;;5080133;28;20525;-86
2020/12/11 04:12:52;;;;;;;5.55;0.82;;;20.90;84.40;;;;;;5080136;28;20097;-85
2020/12/11 04:15:19;;;;;;;8.60;2.15;;;20.70;83.80;;;;;;5092062;28;20025;-85
2020/12/11 04:17:46;;;;;;;8.35;1.23;;;20.50;84.00;;;;;;5053861;28;20500;-86
2020/12/11 04:20:14;;;;;;;7.90;1.45;;;20.40;84.50;;;;;;5050442;28;20036;-85
2020/12/11 04:22:41;;;;;;;23.38;6.78;;;20.50;84.90;;;;;;5068130;28;20033;-86
2020/12/11 04:25:08;;;;;;;106.80;13.10;;;20.50;85.30;;;;;;5090166;28;20528;-84
2020/12/11 04:27:35;;;;;;;12.35;1.48;;;20.40;85.20;;;;;;5073553;28;20020;-86
2020/12/11 04:30:03;;;;;;;6.82;0.90;;;20.30;87.10;;;;;;5089664;28;20024;-86
2020/12/11 04:32:30;;;;;;;7.03;1.48;;;20.20;87.10;;;;;;5073589;28;20036;-84
2020/12/11 04:34:57;;;;;;;6.55;1.10;;;20.10;88.10;;;;;;5088231;28;20027;-81
2020/12/11 04:37:25;;;;;;;8.23;1.00;;;20.00;89.00;;;;;;5088734;28;20016;-76
2020/12/11 04:39:52;;;;;;;9.30;0.90;;;19.90;87.60;;;;;;5058320;28;20045;-83
2020/12/11 04:42:19;;;;;;;7.78;1.88;;;19.90;88.10;;;;;;5070116;28;20048;-85
2020/12/11 04:44:47;;;;;;;7.35;1.05;;;19.80;88.80;;;;;;5055583;28;20031;-86
2020/12/11 04:47:15;;;;;;;8.65;1.10;;;20.00;88.80;;;;;;5072843;28;20024;-86
2020/12/11 04:49:42;;;;;;;9.77;1.20;;;19.90;88.20;;;;;;5093854;28;20034;-86
2020/12/11 04:54:39;;;;;;;10.13;1.73;;;19.90;89.30;;;;;;5098279;22;20060;-85
2020/12/11 04:57:10;;;;;;;8.02;1.83;;;19.80;90.20;;;;;;5082216;22;20078;-85
2020/12/11 04:59:38;;;;;;;6.28;1.40;;;19.70;90.40;;;;;;5055877;28;20016;-86
2020/12/11 05:02:12;;;;;;;7.05;1.20;;;19.60;90.50;;;;;;5107405;22;20056;-84
2020/12/11 05:04:40;;;;;;;9.40;0.90;;;19.80;90.10;;;;;;5052948;28;20025;-86
2020/12/11 05:07:07;;;;;;;6.38;1.58;;;19.80;89.00;;;;;;5053364;28;20134;-84
2020/12/11 05:09:34;;;;;;;8.93;1.52;;;19.80;88.80;;;;;;5078501;23;20021;-86
2020/12/11 05:12:14;;;;;;;4.72;0.68;;;19.70;88.90;;;;;;5044974;28;20048;-86
2020/12/11 05:14:41;;;;;;;8.52;1.20;;;19.70;89.70;;;;;;5050180;28;20036;-86
2020/12/11 05:17:09;;;;;;;5.68;1.33;;;19.70;89.90;;;;;;5060390;28;20032;-85
2020/12/11 05:19:53;;;;;;;11.02;1.35;;;19.50;90.70;;;;;;5052961;28;20032;-86
2020/12/11 05:22:21;;;;;;;6.80;0.83;;;19.60;90.80;;;;;;5068457;28;20536;-85
2020/12/11 05:24:54;;;;;;;9.63;1.10;;;19.70;90.30;;;;;;5062583;28;20786;-87
2020/12/11 05:27:47;;;;;;;8.10;1.25;;;19.80;90.10;;;;;;5069881;23;20060;-85
2020/12/11 05:30:14;;;;;;;7.90;1.38;;;19.80;89.40;;;;;;5034809;28;20025;-85
2020/12/11 05:32:48;;;;;;;9.80;1.40;;;19.70;89.60;;;;;;5050258;28;20544;-86
2020/12/11 05:35:19;;;;;;;6.68;0.80;;;19.70;90.20;;;;;;5038425;28;20153;-85
2020/12/11 05:37:53;;;;;;;4.85;0.65;;;19.60;90.70;;;;;;5050908;28;20021;-81
2020/12/11 05:40:36;;;;;;;7.88;0.80;;;19.70;90.60;;;;;;5023184;28;20021;-85
2020/12/11 05:43:19;;;;;;;12.32;1.80;;;19.90;90.80;;;;;;5050272;28;20132;-84
2020/12/11 05:46:00;;;;;;;7.45;1.13;;;20.00;90.70;;;;;;5043811;28;20595;-85
2020/12/11 05:48:38;;;;;;;8.73;1.35;;;19.90;90.80;;;;;;5051995;28;20048;-83
2020/12/11 05:51:16;;;;;;;5.82;0.73;;;19.70;91.00;;;;;;5053313;28;20055;-87
2020/12/11 05:53:44;;;;;;;10.13;1.77;;;19.70;90.70;;;;;;5049237;28;20044;-88
2020/12/11 05:56:11;;;;;;;10.43;1.42;;;19.80;91.20;;;;;;5054149;28;20067;-88
2020/12/11 05:58:42;;;;;;;6.15;1.00;;;19.80;91.10;;;;;;5051348;28;20062;-84
2020/12/11 06:01:18;;;;;;;11.30;1.10;;;19.60;91.30;;;;;;5074938;22;20040;-87
2020/12/11 06:03:50;;;;;;;7.90;1.10;;;19.50;91.40;;;;;;5067988;28;20068;-86
2020/12/11 06:06:18;;;;;;;12.43;2.22;;;19.50;91.20;;;;;;5082458;28;20032;-80
2020/12/11 06:08:46;;;;;;;7.47;1.20;;;19.40;91.50;;;;;;5072388;28;20482;-85
2020/12/11 06:11:26;;;;;;;6.65;0.93;;;19.50;91.50;;;;;;5049252;28;20085;-87
2020/12/11 06:14:10;;;;;;;6.78;1.30;;;19.50;91.10;;;;;;5070032;28;20094;-86
2020/12/11 06:16:39;;;;;;;9.50;1.27;;;19.50;91.20;;;;;;5062656;28;20025;-84
2020/12/11 06:19:07;;;;;;;10.13;1.60;;;19.40;91.40;;;;;;5075882;28;20032;-85
2020/12/11 06:21:35;;;;;;;7.75;1.25;;;19.40;91.60;;;;;;5090378;28;20062;-87
2020/12/11 06:24:03;;;;;;;9.02;1.10;;;19.40;91.50;;;;;;5071097;28;20025;-85
2020/12/11 06:26:30;;;;;;;8.75;0.90;;;19.50;91.30;;;;;;5070946;28;20036;-77
2020/12/11 06:28:58;;;;;;;11.93;1.00;;;19.50;91.20;;;;;;5067089;28;20033;-86
2020/12/11 06:31:26;;;;;;;6.53;0.85;;;19.50;91.10;;;;;;5067854;28;20458;-86
2020/12/11 06:33:57;;;;;;;9.75;1.52;;;19.60;91.20;;;;;;5063829;28;20070;-86
2020/12/11 06:36:25;;;;;;;8.45;1.02;;;19.60;91.30;;;;;;5067010;28;20032;-86
2020/12/11 06:38:57;;;;;;;10.18;1.85;;;19.60;91.00;;;;;;5068452;28;20024;-87
2020/12/11 06:41:31;;;;;;;7.20;1.08;;;19.60;91.20;;;;;;5052543;28;20033;-86
2020/12/11 06:44:12;;;;;;;8.50;1.40;;;19.50;90.90;;;;;;5051518;28;20032;-85
2020/12/11 06:46:39;;;;;;;6.35;0.85;;;19.50;90.60;;;;;;5068665;28;20017;-88
2020/12/11 06:49:20;;;;;;;8.93;1.33;;;19.50;90.50;;;;;;5067723;28;20108;-83
2020/12/11 06:51:47;;;;;;;8.93;1.27;;;19.50;90.90;;;;;;5068321;28;20117;-81
2020/12/11 06:54:23;;;;;;;9.80;1.10;;;19.50;90.90;;;;;;5069722;28;20495;-82
2020/12/11 06:56:53;;;;;;;8.82;1.10;;;19.50;90.50;;;;;;5068247;28;20052;-80
2020/12/11 06:59:30;;;;;;;7.05;1.00;;;19.50;91.30;;;;;;5069014;28;20493;-82
2020/12/11 07:02:15;;;;;;;6.97;0.90;;;19.40;91.10;;;;;;5069328;22;20123;-83
2020/12/11 07:04:50;;;;;;;8.90;1.30;;;19.30;91.70;;;;;;5034998;23;20502;-80
2020/12/11 07:07:22;;;;;;;9.57;2.08;;;19.30;91.90;;;;;;5047816;28;20084;-83
2020/12/11 07:09:53;;;;;;;5.45;0.57;;;19.30;92.00;;;;;;5056993;23;20068;-84
2020/12/11 07:12:21;;;;;;;7.80;0.90;;;19.40;91.40;;;;;;5035214;28;20139;-83
2020/12/11 07:14:49;;;;;;;10.60;1.55;;;19.20;91.50;;;;;;5067895;28;20099;-83
2020/12/11 07:17:29;;;;;;;12.50;1.55;;;19.20;91.90;;;;;;5086407;22;20084;-88
2020/12/11 07:20:00;;;;;;;8.60;1.10;;;19.20;92.70;;;;;;5051468;28;20481;-87
2020/12/11 07:22:31;;;;;;;7.70;1.95;;;19.10;92.90;;;;;;5049442;28;20032;-86
2020/12/11 07:24:59;;;;;;;9.77;1.52;;;19.10;93.20;;;;;;5050181;28;20029;-82
2020/12/11 07:27:28;;;;;;;8.63;1.38;;;19.20;93.30;;;;;;5049660;28;20032;-86
2020/12/11 07:29:55;;;;;;;8.85;1.15;;;19.20;93.20;;;;;;5032002;28;20032;-85
2020/12/11 07:32:24;;;;;;;10.93;1.42;;;19.20;93.60;;;;;;5052097;28;20035;-87
2020/12/11 07:34:53;;;;;;;9.55;1.73;;;19.30;93.40;;;;;;5068404;22;20063;-87
2020/12/11 07:37:20;;;;;;;13.88;2.97;;;19.20;93.30;;;;;;5052179;28;20032;-86
2020/12/11 07:39:47;;;;;;;7.20;1.10;;;19.10;93.50;;;;;;5066806;28;20113;-88
2020/12/11 07:42:21;;;;;;;6.85;1.30;;;19.10;93.60;;;;;;5051863;28;20025;-85
2020/12/11 07:44:49;;;;;;;14.93;1.85;;;19.10;93.60;;;;;;5052199;28;20029;-86
2020/12/11 07:47:16;;;;;;;8.60;1.52;;;19.00;93.70;;;;;;5051578;28;20053;-86
2020/12/11 07:49:45;;;;;;;6.38;1.13;;;18.90;93.90;;;;;;5050299;28;20508;-88
2020/12/11 07:52:22;;;;;;;7.43;1.30;;;18.80;93.80;;;;;;5037693;28;20024;-88
2020/12/11 07:54:49;;;;;;;9.57;1.35;;;18.80;93.90;;;;;;5055962;28;20496;-87
2020/12/11 07:57:25;;;;;;;10.30;1.02;;;18.80;94.00;;;;;;5052137;28;20029;-86
2020/12/11 08:00:00;;;;;;;8.10;0.98;;;18.90;93.70;;;;;;5055162;28;20017;-86
2020/12/11 08:02:30;;;;;;;9.13;1.55;;;18.80;93.60;;;;;;5052315;28;20108;-86
2020/12/11 08:04:58;;;;;;;7.30;1.70;;;18.80;93.60;;;;;;5054214;28;20493;-85
2020/12/11 08:07:30;;;;;;;14.43;1.73;;;18.80;93.90;;;;;;5062795;23;20052;-86
2020/12/11 08:10:15;;;;;;;11.57;1.70;;;18.70;94.40;;;;;;5071781;28;20127;-85
2020/12/11 08:12:42;;;;;;;;;;;18.80;94.30;;;;;;5068364;28;20158;-84
2020/12/11 08:15:10;;;;;;;5.82;1.55;;;18.80;94.50;;;;;;5064747;28;19908;-88
2020/12/11 08:17:40;;;;;;;7.55;1.05;;;18.80;94.40;;;;;;5069515;28;20016;-84
2020/12/11 08:20:09;;;;;;;10.15;1.75;;;18.90;93.90;;;;;;5054459;28;20029;-88
2020/12/11 08:22:38;;;;;;;7.07;0.80;;;18.90;93.80;;;;;;5065485;28;20095;-87
2020/12/11 08:25:27;;;;;;;6.55;0.75;;;18.80;93.30;;;;;;5071872;28;20104;-86
2020/12/11 08:28:05;;;;;;;7.43;0.88;;;18.80;93.20;;;;;;5071397;28;20021;-86
2020/12/11 08:30:39;;;;;;;4.90;0.93;;;18.70;93.90;;;;;;5053118;28;20016;-89
2020/12/11 08:33:11;;;;;;;9.40;1.30;;;18.70;94.00;;;;;;5072229;28;20032;-89
2020/12/11 08:35:39;;;;;;;12.70;1.60;;;18.80;93.80;;;;;;5053785;28;20029;-88
2020/12/11 08:38:11;;;;;;;5.15;1.00;;;18.70;94.10;;;;;;5053878;28;20472;-91
2020/12/11 08:40:48;;;;;;;7.88;1.60;;;18.70;94.10;;;;;;5058589;28;20124;-89
2020/12/11 08:43:31;;;;;;;6.47;1.17;;;18.70;94.20;;;;;;5069939;28;20024;-89
2020/12/11 08:46:15;;;;;;;9.35;1.60;;;18.70;94.20;;;;;;5071342;28;20423;-88
2020/12/11 08:51:32;;;;;;;20.73;1.60;;;18.80;93.90;;;;;;5072481;28;20033;-90
2020/12/11 08:54:02;;;;;;;13.50;1.88;;;18.80;93.60;;;;;;5071713;28;20021;-88
2020/12/11 08:56:29;;;;;;;6.60;1.60;;;18.80;93.60;;;;;;5071551;28;20027;-90
2020/12/11 08:58:57;;;;;;;10.32;1.63;;;18.70;93.70;;;;;;5071656;28;20028;-90
2020/12/11 09:01:24;;;;;;;7.47;0.70;;;18.70;93.90;;;;;;5071836;28;20485;-87
2020/12/11 09:03:52;;;;;;;8.93;1.50;;;18.70;94.50;;;;;;5071576;28;20111;-87
2020/12/11 09:06:19;;;;;;;8.30;1.08;;;18.60;94.50;;;;;;5074440;28;20430;-88
2020/12/11 09:08:46;;;;;;;10.05;1.30;;;18.60;95.30;;;;;;5059801;23;20098;-88
2020/12/11 09:11:14;;;;;;;9.95;1.50;;;18.40;97.70;;;;;;5037116;23;20045;-89
2020/12/11 09:13:41;;;;;;;10.73;1.77;;;18.10;99.90;;;;;;5056548;22;20048;-88
2020/12/11 09:16:09;;;;;;;8.70;1.92;;;18.00;99.90;;;;;;5073485;22;20024;-90
2020/12/11 09:18:36;;;;;;;10.85;1.20;;;17.80;99.90;;;;;;5050597;28;20029;-89
2020/12/11 09:21:04;;;;;;;13.27;1.80;;;17.70;99.90;;;;;;5050775;28;20014;-90
2020/12/11 09:23:31;;;;;;;11.10;1.10;;;17.60;99.90;;;;;;5051711;28;20381;-89
2020/12/11 09:25:58;;;;;;;9.35;1.30;;;17.70;99.90;;;;;;5055033;23;20049;-83
2020/12/11 09:28:26;;;;;;;11.68;1.67;;;17.70;99.90;;;;;;5046431;28;20027;-84
2020/12/11 09:30:53;;;;;;;11.10;1.35;;;17.70;99.90;;;;;;5059328;28;20024;-85
2020/12/11 09:33:23;;;;;;;16.92;2.80;;;17.70;99.90;;;;;;5053287;28;20174;-84
2020/12/11 09:35:51;;;;;;;11.48;1.17;;;17.80;99.90;;;;;;5052424;28;20044;-84
2020/12/11 09:38:18;;;;;;;11.82;2.03;;;17.80;99.90;;;;;;5058104;28;20040;-83
2020/12/11 09:40:51;;;;;;;9.48;1.05;;;17.90;99.90;;;;;;5052596;28;20155;-83
2020/12/11 09:48:56;;;;;;;7.18;1.77;;;18.00;98.60;;;;;;5053141;28;20421;-86
2020/12/11 09:56:28;;;;;;;7.90;0.90;;;18.20;96.80;;;;;;5053884;28;20021;-84
2020/12/11 09:59:07;;;;;;;8.52;0.90;;;18.20;96.80;;;;;;5053767;28;20036;-83
2020/12/11 10:04:11;;;;;;;6.57;1.05;;;18.30;96.40;;;;;;5053852;28;20100;-83
2020/12/11 10:06:38;;;;;;;9.38;2.05;;;18.40;96.10;;;;;;5051410;28;20032;-84
2020/12/11 10:09:06;;;;;;;10.40;1.52;;;18.40;96.00;;;;;;5053691;28;20111;-82
2020/12/11 10:11:34;;;;;;;10.27;1.17;;;18.40;96.00;;;;;;5050155;28;20044;-82
2020/12/11 10:16:55;;;;;;;10.55;1.48;;;18.40;95.60;;;;;;5081414;22;20045;-91
2020/12/11 10:19:24;;;;;;;9.38;1.15;;;18.30;95.70;;;;;;5051620;28;20036;-85
2020/12/11 10:21:53;;;;;;;8.95;0.90;;;18.30;95.80;;;;;;5052217;28;20405;-89
2020/12/11 10:24:21;;;;;;;8.32;1.48;;;18.40;95.90;;;;;;5058036;28;20017;-91
2020/12/11 10:26:49;;;;;;;7.53;1.30;;;18.40;96.00;;;;;;5054279;28;20474;-89
2020/12/11 10:29:16;;;;;;;10.00;1.30;;;18.50;95.40;;;;;;5054373;28;20033;-88
2020/12/11 10:31:44;;;;;;;9.13;1.35;;;18.40;95.40;;;;;;5054536;28;20096;-89
2020/12/11 10:34:16;;;;;;;8.50;2.05;;;18.50;95.40;;;;;;5052022;28;20025;-89
2020/12/11 10:36:46;;;;;;;8.90;1.98;;;18.50;95.20;;;;;;5052942;28;20062;-90
2020/12/11 10:39:14;;;;;;;7.35;1.88;;;18.50;95.30;;;;;;5064540;28;20028;-89
2020/12/11 10:41:42;;;;;;;7.18;1.15;;;18.50;95.20;;;;;;5069395;28;20033;-90
2020/12/11 10:44:10;;;;;;;9.65;1.55;;;18.50;95.10;;;;;;5053421;28;20025;-92
2020/12/11 10:46:37;;;;;;;8.30;1.05;;;18.50;95.50;;;;;;5051998;28;20040;-91
2020/12/11 10:49:04;;;;;;;5.85;0.90;;;18.40;95.20;;;;;;5054358;28;20021;-91
2020/12/11 10:51:32;;;;;;;5.93;1.20;;;18.50;94.80;;;;;;5053103;28;20090;-86
2020/12/11 10:54:00;;;;;;;10.38;2.47;;;18.50;94.40;;;;;;5052990;28;20021;-88
2020/12/11 10:56:27;;;;;;;12.45;0.70;;;18.50;94.10;;;;;;5052647;28;20033;-90
2020/12/11 10:58:55;;;;;;;9.25;1.75;;;18.50;94.20;;;;;;5051726;28;20025;-87
2020/12/11 11:01:22;;;;;;;8.93;1.17;;;18.50;94.20;;;;;;5049761;28;20029;-92
2020/12/11 11:03:49;;;;;;;9.38;0.80;;;18.50;94.40;;;;;;5050572;28;20021;-91
2020/12/11 11:09:09;;;;;;;8.75;1.02;;;18.50;93.90;;;;;;5059715;28;20028;-90
2020/12/11 11:11:43;;;;;;;6.18;0.95;;;18.60;93.90;;;;;;5064521;28;20037;-88
2020/12/11 11:20:22;;;;;;;8.85;0.85;;;18.60;94.50;;;;;;5043215;22;20118;-92
2020/12/11 11:25:44;;;;;;;8.10;0.68;;;18.50;95.20;;;;;;5059177;22;20057;-91
2020/12/11 11:28:10;;;;;;;9.15;1.25;;;18.50;94.30;;;;;;5050921;28;20031;-90
2020/12/11 11:30:38;;;;;;;8.63;1.30;;;18.50;93.70;;;;;;5052836;28;20029;-90
2020/12/11 11:33:05;;;;;;;6.40;0.55;;;18.60;93.60;;;;;;5066535;22;20080;-91
2020/12/11 11:35:32;;;;;;;5.65;0.68;;;18.60;93.10;;;;;;5052950;28;20025;-90
2020/12/11 11:38:01;;;;;;;6.40;0.70;;;18.60;93.50;;;;;;5051916;28;20029;-90
2020/12/11 11:40:28;;;;;;;8.23;1.17;;;18.60;93.50;;;;;;5052072;28;20033;-92
2020/12/11 11:42:55;;;;;;;8.90;0.80;;;18.60;93.10;;;;;;5050477;28;20036;-90
2020/12/11 11:45:25;;;;;;;7.10;0.63;;;18.50;93.00;;;;;;5051706;28;20331;-86
2020/12/11 11:47:55;;;;;;;6.70;1.13;;;18.60;93.10;;;;;;5051851;28;20047;-90
2020/12/11 11:51:09;;;;;;;9.00;1.17;;;18.60;93.00;;;;;;5080546;22;20118;-92
2020/12/11 11:53:15;;;;;;;4.72;0.88;;;18.60;93.00;;;;;;5048377;28;20055;-89
2020/12/11 11:55:43;;;;;;;4.03;0.47;;;18.50;92.90;;;;;;5049395;28;20223;-90
2020/12/11 11:58:11;;;;;;;8.75;1.40;;;18.50;92.70;;;;;;5047044;28;20037;-91
2020/12/11 12:00:38;;;;;;;3.53;0.55;;;18.50;92.90;;;;;;5035327;28;20493;-90
2020/12/11 12:03:06;;;;;;;4.90;1.02;;;18.50;92.90;;;;;;5051587;28;20033;-90
2020/12/11 12:05:33;;;;;;;9.27;0.93;;;18.50;93.00;;;;;;5046582;28;20035;-91
2020/12/11 12:08:00;;;;;;;10.00;1.00;;;18.50;93.00;;;;;;5047798;28;20044;-91
2020/12/11 12:10:28;;;;;;;5.82;0.80;;;18.50;93.30;;;;;;5050508;28;20032;-89
2020/12/11 12:12:55;;;;;;;9.20;0.80;;;18.50;93.30;;;;;;5051997;28;20089;-89
2020/12/11 12:15:25;;;;;;;6.10;0.77;;;18.50;93.40;;;;;;5051725;28;20474;-89
2020/12/11 12:28:48;;;;;;;7.00;0.95;;;18.50;92.70;;;;;;5058286;28;21882;-91
2020/12/11 12:31:16;;;;;;;6.55;0.85;;;18.60;92.60;;;;;;5031406;28;20030;-90
2020/12/11 12:36:50;;;;;;;5.68;0.70;;;18.50;92.30;;;;;;5051392;28;20040;-92
2020/12/11 12:44:31;;;;;;;10.48;0.98;;;18.50;92.60;;;;;;5052401;28;20071;-89
2020/12/11 12:46:58;;;;;;;8.85;1.25;;;18.50;92.90;;;;;;5044189;28;20434;-91
2020/12/11 12:49:26;;;;;;;8.10;0.90;;;18.50;93.00;;;;;;5048422;28;20060;-88
2020/12/11 12:51:53;;;;;;;5.43;0.75;;;18.50;93.00;;;;;;5045409;28;20389;-89
2020/12/11 12:54:21;;;;;;;4.72;0.95;;;18.40;93.10;;;;;;5047446;28;20091;-90
2020/12/11 12:56:52;;;;;;;8.07;0.80;;;18.50;92.90;;;;;;5050937;28;20075;-90
2020/12/11 12:59:42;;;;;;;6.53;0.90;;;18.40;92.90;;;;;;5050957;28;20021;-91
2020/12/11 13:02:36;;;;;;;7.85;0.98;;;18.40;93.10;;;;;;5051309;28;20490;-91
2020/12/11 13:07:31;;;;;;;6.55;1.02;;;18.30;93.30;;;;;;5050441;28;20300;-91
2020/12/11 13:09:58;;;;;;;11.48;1.13;;;18.30;93.30;;;;;;5062783;28;20435;-90
2020/12/11 13:12:26;;;;;;;9.38;0.93;;;18.30;93.00;;;;;;5056896;28;20037;-91
2020/12/11 13:14:53;;;;;;;8.27;0.60;;;18.30;92.60;;;;;;5055313;28;20021;-90
2020/12/11 13:17:20;;;;;;;3.78;0.68;;;18.30;92.30;;;;;;5054817;28;20025;-88
2020/12/11 13:19:48;;;;;;;6.40;1.00;;;18.30;92.10;;;;;;5055968;28;20022;-89
2020/12/11 13:27:45;;;;;;;4.35;0.60;;;18.40;91.60;;;;;;5066473;22;20060;-90
2020/12/11 13:30:15;;;;;;;6.60;0.88;;;18.40;91.70;;;;;;5054592;28;20377;-90
2020/12/11 13:32:42;;;;;;;9.80;1.30;;;18.40;91.80;;;;;;5062496;22;20114;-89
2020/12/11 13:35:09;;;;;;;5.65;0.60;;;18.30;91.90;;;;;;5054571;28;20090;-89
2020/12/11 13:37:37;;;;;;;4.38;1.02;;;18.30;92.00;;;;;;5054428;28;20059;-90
2020/12/11 13:40:05;;;;;;;5.97;0.73;;;18.30;92.10;;;;;;5044124;22;20683;-91
2020/12/11 13:42:32;;;;;;;4.18;0.52;;;18.30;92.00;;;;;;5052807;28;20029;-90
2020/12/11 13:44:59;;;;;;;3.95;0.68;;;18.30;91.90;;;;;;5050427;28;20017;-90
2020/12/11 13:47:27;;;;;;;4.55;0.50;;;18.30;91.80;;;;;;5052395;28;20165;-90
2020/12/11 13:49:54;;;;;;;8.35;0.77;;;18.30;91.80;;;;;;5053676;28;20029;-90
2020/12/11 13:52:21;;;;;;;6.35;0.65;;;18.30;91.80;;;;;;5054579;28;20029;-92
2020/12/11 13:54:49;;;;;;;9.02;1.73;;;18.30;92.20;;;;;;5054396;28;20013;-90
2020/12/11 13:57:16;;;;;;;6.38;0.50;;;18.30;91.90;;;;;;5064632;22;20506;-90